createdAt,value
2018-12-18T00:00:45.634Z,4.70
2018-12-18T00:02:56.584Z,4.00
2018-12-18T00:05:13.716Z,4.97
2018-12-18T00:07:24.568Z,4.50
2018-12-18T00:09:35.400Z,5.07
2018-12-18T00:11:46.255Z,3.73
2018-12-18T00:13:57.109Z,4.50
2018-12-18T00:16:07.962Z,4.10
2018-12-18T00:18:18.825Z,3.33
2018-12-18T00:20:29.681Z,3.97
2018-12-18T00:22:40.505Z,4.40
2018-12-18T00:24:51.359Z,3.80
2018-12-18T00:27:02.205Z,3.80
2018-12-18T00:29:13.041Z,4.23
2018-12-18T00:31:23.891Z,3.50
2018-12-18T00:33:34.729Z,3.90
2018-12-18T00:35:45.610Z,3.87
2018-12-18T00:37:56.457Z,4.07
2018-12-18T00:40:07.491Z,4.10
2018-12-18T00:42:18.321Z,3.60
2018-12-18T00:44:29.180Z,3.60
2018-12-18T00:46:40.021Z,3.20
2018-12-18T00:48:50.860Z,2.93
2018-12-18T00:51:01.688Z,3.80
2018-12-18T00:53:12.564Z,3.70
2018-12-18T00:55:23.414Z,3.90
2018-12-18T00:57:34.264Z,4.63
2018-12-18T00:59:45.098Z,3.50
2018-12-18T01:01:59.133Z,4.50
2018-12-18T01:04:09.986Z,3.60
2018-12-18T01:06:20.856Z,3.87
2018-12-18T01:08:31.685Z,3.70
2018-12-18T01:10:42.533Z,4.20
2018-12-18T01:12:53.396Z,4.97
2018-12-18T01:15:05.265Z,4.30
2018-12-18T01:17:16.088Z,4.40
2018-12-18T01:19:27.075Z,4.40
2018-12-18T01:21:37.910Z,4.27
2018-12-18T01:23:48.769Z,4.10
2018-12-18T01:25:59.750Z,4.30
2018-12-18T01:28:10.589Z,4.00
2018-12-18T01:30:21.429Z,4.17
2018-12-18T01:32:32.264Z,3.70
2018-12-18T01:34:43.151Z,4.13
2018-12-18T01:36:54.012Z,3.63
2018-12-18T01:39:05.588Z,3.70
2018-12-18T01:41:16.424Z,4.10
2018-12-18T01:43:27.277Z,3.63
2018-12-18T01:45:38.157Z,3.90
2018-12-18T01:47:48.997Z,3.87
2018-12-18T01:49:59.901Z,3.73
2018-12-18T01:52:10.737Z,3.60
2018-12-18T01:54:21.597Z,3.60
2018-12-18T01:56:32.655Z,3.50
2018-12-18T01:58:43.505Z,4.20
2018-12-18T02:00:54.361Z,4.63
2018-12-18T02:03:05.298Z,3.60
2018-12-18T02:05:16.160Z,3.43
2018-12-18T02:07:26.990Z,3.90
2018-12-18T02:09:37.841Z,4.30
2018-12-18T02:11:48.701Z,3.90
2018-12-18T02:13:59.553Z,3.93
2018-12-18T02:16:10.420Z,3.87
2018-12-18T02:18:21.239Z,3.93
2018-12-18T02:20:32.096Z,4.10
2018-12-18T02:22:42.911Z,3.60
2018-12-18T02:24:53.775Z,3.80
2018-12-18T02:27:04.612Z,4.17
2018-12-18T02:29:15.449Z,4.20
2018-12-18T02:31:26.339Z,3.30
2018-12-18T02:33:37.162Z,3.90
2018-12-18T02:35:47.983Z,4.10
2018-12-18T02:37:58.840Z,3.73
2018-12-18T02:40:09.661Z,4.00
2018-12-18T02:42:20.527Z,4.17
2018-12-18T02:44:31.365Z,3.20
2018-12-18T02:46:43.132Z,3.90
2018-12-18T02:48:53.983Z,3.23
2018-12-18T02:51:04.854Z,3.70
2018-12-18T02:53:15.738Z,3.17
2018-12-18T02:55:26.621Z,3.40
2018-12-18T02:57:37.549Z,4.00
2018-12-18T02:59:48.428Z,3.00
2018-12-18T03:01:59.260Z,3.10
2018-12-18T03:04:10.076Z,3.37
2018-12-18T03:06:20.931Z,3.60
2018-12-18T03:08:31.781Z,3.60
2018-12-18T03:10:42.608Z,3.13
2018-12-18T03:12:53.466Z,3.30
2018-12-18T03:15:04.413Z,3.40
2018-12-18T03:17:15.372Z,4.23
2018-12-18T03:19:26.226Z,3.07
2018-12-18T03:21:37.064Z,3.03
2018-12-18T03:23:47.941Z,3.27
2018-12-18T03:25:58.773Z,3.47
2018-12-18T03:28:09.639Z,3.30
2018-12-18T03:30:20.503Z,2.50
2018-12-18T03:32:32.556Z,2.43
2018-12-18T03:34:43.520Z,2.90
2018-12-18T03:36:54.349Z,2.67
2018-12-18T03:39:05.407Z,2.93
2018-12-18T03:41:16.342Z,3.37
2018-12-18T03:43:27.184Z,3.03
2018-12-18T03:45:38.029Z,2.40
2018-12-18T03:47:48.855Z,3.03
2018-12-18T03:49:59.793Z,2.60
2018-12-18T03:52:10.613Z,3.10
2018-12-18T03:54:21.779Z,2.53
2018-12-18T03:56:32.621Z,2.80
2018-12-18T03:58:43.474Z,2.83
2018-12-18T04:00:54.317Z,2.73
2018-12-18T04:03:05.154Z,2.60
2018-12-18T04:05:16.140Z,2.40
2018-12-18T04:07:27.088Z,2.80
2018-12-18T04:09:37.929Z,2.30
2018-12-18T04:11:54.923Z,2.40
2018-12-18T04:14:05.772Z,3.10
2018-12-18T04:16:16.621Z,2.80
2018-12-18T04:18:27.475Z,2.50
2018-12-18T04:20:38.438Z,2.33
2018-12-18T04:22:49.261Z,2.37
2018-12-18T04:25:00.115Z,2.43
2018-12-18T04:27:11.167Z,2.70
2018-12-18T04:29:22.102Z,3.97
2018-12-18T04:31:32.945Z,3.33
2018-12-18T04:33:43.761Z,3.67
2018-12-18T04:35:54.602Z,3.20
2018-12-18T04:38:05.424Z,3.10
2018-12-18T04:40:16.272Z,3.20
2018-12-18T04:42:27.096Z,3.57
2018-12-18T04:44:37.944Z,3.80
2018-12-18T04:46:48.839Z,4.73
2018-12-18T04:48:59.657Z,4.27
2018-12-18T04:51:10.529Z,3.93
2018-12-18T04:53:21.484Z,3.20
2018-12-18T04:55:32.336Z,3.00
2018-12-18T04:57:43.277Z,2.20
2018-12-18T04:59:54.115Z,2.47
2018-12-18T05:02:04.992Z,2.60
2018-12-18T05:04:15.949Z,2.63
2018-12-18T05:06:26.811Z,2.63
2018-12-18T05:08:37.655Z,2.67
2018-12-18T05:10:48.497Z,2.93
2018-12-18T05:12:59.349Z,3.07
2018-12-18T05:15:10.196Z,2.47
2018-12-18T05:17:21.188Z,2.43
2018-12-18T05:19:32.012Z,2.13
2018-12-18T05:21:42.869Z,2.90
2018-12-18T05:23:53.720Z,2.67
2018-12-18T05:26:04.810Z,2.37
2018-12-18T05:28:16.362Z,2.57
2018-12-18T05:30:27.373Z,2.53
2018-12-18T05:32:38.268Z,2.53
2018-12-18T05:34:49.112Z,2.63
2018-12-18T05:36:59.984Z,2.40
2018-12-18T05:39:10.821Z,2.10
2018-12-18T05:41:21.684Z,2.70
2018-12-18T05:43:32.570Z,2.50
2018-12-18T05:45:43.453Z,2.90
2018-12-18T05:47:54.312Z,2.60
2018-12-18T05:50:05.674Z,2.57
2018-12-18T05:52:16.542Z,2.70
2018-12-18T05:54:27.369Z,2.33
2018-12-18T05:56:38.206Z,2.90
2018-12-18T05:58:49.064Z,2.40
2018-12-18T06:00:59.921Z,2.57
2018-12-18T06:03:10.775Z,2.40
2018-12-18T06:05:21.621Z,2.20
2018-12-18T06:07:32.481Z,2.50
2018-12-18T06:09:43.336Z,2.70
2018-12-18T06:11:54.182Z,2.57
2018-12-18T06:14:05.033Z,2.07
2018-12-18T06:16:15.847Z,2.50
2018-12-18T06:18:26.698Z,2.73
2018-12-18T06:20:37.633Z,3.23
2018-12-18T06:22:48.517Z,2.57
2018-12-18T06:24:59.389Z,3.00
2018-12-18T06:27:10.275Z,2.60
2018-12-18T06:29:21.257Z,2.77
2018-12-18T06:31:32.081Z,3.67
2018-12-18T06:33:42.913Z,4.50
2018-12-18T06:35:53.746Z,4.63
2018-12-18T06:38:04.590Z,4.07
2018-12-18T06:40:15.473Z,3.77
2018-12-18T06:42:26.354Z,3.27
2018-12-18T06:44:37.217Z,4.40
2018-12-18T06:46:48.055Z,3.83
2018-12-18T06:48:58.905Z,3.80
2018-12-18T06:51:09.757Z,4.23
2018-12-18T06:53:20.576Z,3.80
2018-12-18T06:55:31.468Z,3.53
2018-12-18T06:57:42.334Z,3.63
2018-12-18T06:59:53.206Z,4.77
2018-12-18T07:02:04.060Z,4.80
2018-12-18T07:04:14.908Z,4.60
2018-12-18T07:06:25.766Z,5.27
2018-12-18T07:08:36.621Z,5.13
2018-12-18T07:10:47.458Z,4.53
2018-12-18T07:12:58.321Z,4.57
2018-12-18T07:15:09.172Z,4.50
2018-12-18T07:17:20.025Z,5.47
2018-12-18T07:19:30.842Z,5.30
2018-12-18T07:21:41.720Z,5.07
2018-12-18T07:23:52.649Z,6.13
2018-12-18T07:26:03.513Z,6.10
2018-12-18T07:28:14.361Z,6.40
2018-12-18T07:30:25.184Z,6.00
2018-12-18T07:32:36.034Z,6.60
2018-12-18T07:34:46.849Z,6.13
2018-12-18T07:36:57.848Z,5.90
2018-12-18T07:39:08.877Z,5.27
2018-12-18T07:41:19.856Z,6.57
2018-12-18T07:43:30.696Z,6.57
2018-12-18T07:45:41.563Z,6.47
2018-12-18T07:47:52.438Z,7.17
2018-12-18T07:50:04.432Z,7.00
2018-12-18T07:52:15.307Z,6.80
2018-12-18T07:54:26.160Z,7.60
2018-12-18T07:56:37.072Z,6.53
2018-12-18T07:58:47.940Z,7.03
2018-12-18T08:00:58.807Z,7.33
2018-12-18T08:03:09.655Z,6.47
2018-12-18T08:05:20.602Z,6.13
2018-12-18T08:07:31.491Z,6.83
2018-12-18T08:09:42.353Z,5.13
2018-12-18T08:11:53.221Z,5.70
2018-12-18T08:14:04.097Z,6.53
2018-12-18T08:16:14.933Z,6.93
2018-12-18T08:18:25.796Z,7.17
2018-12-18T08:20:36.648Z,6.27
2018-12-18T08:22:47.484Z,7.27
2018-12-18T08:24:58.360Z,6.90
2018-12-18T08:27:09.201Z,6.10
2018-12-18T08:29:20.071Z,6.80
2018-12-18T08:31:30.932Z,6.10
2018-12-18T08:33:41.775Z,5.43
2018-12-18T08:35:52.671Z,4.57
2018-12-18T08:38:03.517Z,4.33
2018-12-18T08:40:14.385Z,4.53
2018-12-18T08:42:25.205Z,5.10
2018-12-18T08:44:36.082Z,4.43
2018-12-18T08:46:46.937Z,5.80
2018-12-18T08:48:57.794Z,5.50
2018-12-18T08:51:08.636Z,5.60
2018-12-18T08:53:19.488Z,5.30
2018-12-18T08:55:30.454Z,5.67
2018-12-18T08:57:41.312Z,5.40
2018-12-18T08:59:52.149Z,5.50
2018-12-18T09:02:03.005Z,5.07
2018-12-18T09:04:13.885Z,5.37
2018-12-18T09:06:24.745Z,5.90
2018-12-18T09:08:35.580Z,5.47
2018-12-18T09:10:46.448Z,6.43
2018-12-18T09:12:57.316Z,6.27
2018-12-18T09:15:14.360Z,6.20
2018-12-18T09:17:31.400Z,6.23
2018-12-18T09:19:42.296Z,5.87
2018-12-18T09:21:53.194Z,5.60
2018-12-18T09:24:04.145Z,5.80
2018-12-18T09:26:15.013Z,5.40
2018-12-18T09:28:25.931Z,5.43
2018-12-18T09:30:42.429Z,5.67
2018-12-18T09:32:49.709Z,5.70
2018-12-18T09:35:00.579Z,6.67
2018-12-18T09:37:11.489Z,6.30
2018-12-18T09:39:24.371Z,6.50
2018-12-18T09:41:38.320Z,6.30
2018-12-18T09:43:54.889Z,6.40
2018-12-18T09:46:05.776Z,7.00
2018-12-18T09:48:17.638Z,6.83
2018-12-18T09:50:28.512Z,6.43
2018-12-18T09:52:39.372Z,6.23
2018-12-18T09:54:50.197Z,6.27
2018-12-18T09:57:01.089Z,6.27
2018-12-18T09:59:11.978Z,6.43
2018-12-18T10:01:22.803Z,6.40
2018-12-18T10:03:33.860Z,6.23
2018-12-18T10:05:44.761Z,6.97
2018-12-18T10:07:55.625Z,5.80
2018-12-18T10:10:06.637Z,6.17
2018-12-18T10:12:19.508Z,6.23
2018-12-18T10:14:30.372Z,5.70
2018-12-18T10:16:41.217Z,6.13
2018-12-18T10:18:52.064Z,6.50
2018-12-18T10:21:02.941Z,5.63
2018-12-18T10:23:13.792Z,5.57
2018-12-18T10:25:24.698Z,5.83
2018-12-18T10:27:35.554Z,5.43
2018-12-18T10:29:46.413Z,5.50
2018-12-18T10:31:57.249Z,4.93
2018-12-18T10:34:08.100Z,6.07
2018-12-18T10:36:18.942Z,5.20
2018-12-18T10:38:29.761Z,5.03
2018-12-18T10:40:40.605Z,4.93
2018-12-18T10:42:51.425Z,3.77
2018-12-18T10:45:05.968Z,3.83
2018-12-18T10:47:16.829Z,3.83
2018-12-18T10:49:27.662Z,3.87
2018-12-18T10:51:38.512Z,4.07
2018-12-18T10:53:49.390Z,3.97
2018-12-18T10:56:00.298Z,3.40
2018-12-18T10:58:11.192Z,4.27
2018-12-18T11:00:28.120Z,4.20
2018-12-18T11:02:38.987Z,3.87
2018-12-18T11:04:49.943Z,4.30
2018-12-18T11:07:00.816Z,3.90
2018-12-18T11:09:11.822Z,3.50
2018-12-18T11:11:22.674Z,3.70
2018-12-18T11:13:34.826Z,3.43
2018-12-18T11:15:45.877Z,3.90
2018-12-18T11:17:56.859Z,3.80
2018-12-18T11:20:07.749Z,2.90
2018-12-18T11:22:18.592Z,3.50
2018-12-18T11:24:29.432Z,3.83
2018-12-18T11:26:40.268Z,3.97
2018-12-18T11:28:51.100Z,4.07
2018-12-18T11:31:01.995Z,3.77
2018-12-18T11:33:12.836Z,3.67
2018-12-18T11:35:23.684Z,3.23
2018-12-18T11:37:34.555Z,3.17
2018-12-18T11:39:45.398Z,2.67
2018-12-18T11:41:56.320Z,3.10
2018-12-18T11:44:07.206Z,2.40
2018-12-18T11:46:18.076Z,2.60
2018-12-18T11:48:28.913Z,2.73
2018-12-18T11:50:39.777Z,2.50
2018-12-18T11:52:50.640Z,2.43
2018-12-18T11:55:01.493Z,2.80
2018-12-18T11:57:12.365Z,3.10
2018-12-18T11:59:23.320Z,2.50
2018-12-18T12:01:34.182Z,3.30
2018-12-18T12:03:45.273Z,3.00
2018-12-18T12:05:56.116Z,2.80
2018-12-18T12:08:07.001Z,3.00
2018-12-18T12:10:17.828Z,3.40
2018-12-18T12:12:28.691Z,3.07
2018-12-18T12:14:40.589Z,3.50
2018-12-18T12:16:51.463Z,3.50
2018-12-18T12:19:03.268Z,3.37
2018-12-18T12:21:14.163Z,3.83
2018-12-18T12:23:25.026Z,3.50
2018-12-18T12:25:35.908Z,4.17
2018-12-18T12:27:52.708Z,4.03
2018-12-18T12:30:11.134Z,3.60
2018-12-18T12:32:22.019Z,3.77
2018-12-18T12:34:32.884Z,3.97
2018-12-18T12:36:43.721Z,3.80
2018-12-18T12:38:54.583Z,3.40
2018-12-18T12:41:05.452Z,3.90
2018-12-18T12:43:16.309Z,3.27
2018-12-18T12:45:27.148Z,3.33
2018-12-18T12:47:38.025Z,3.40
2018-12-18T12:49:48.894Z,3.33
2018-12-18T12:51:59.757Z,2.80
2018-12-18T12:54:10.637Z,2.93
2018-12-18T12:56:21.471Z,3.37
2018-12-18T12:58:32.382Z,3.10
2018-12-18T13:00:43.241Z,3.47
2018-12-18T13:02:54.084Z,2.83
2018-12-18T13:05:05.120Z,3.67
2018-12-18T13:07:16.072Z,3.40
2018-12-18T13:09:27.044Z,3.27
2018-12-18T13:11:37.897Z,3.43
2018-12-18T13:13:48.795Z,3.30
2018-12-18T13:15:59.653Z,3.57
2018-12-18T13:18:10.548Z,2.70
2018-12-18T13:20:21.402Z,2.53
2018-12-18T13:22:32.248Z,2.50
2018-12-18T13:24:43.117Z,3.00
2018-12-18T13:26:53.995Z,2.83
2018-12-18T13:29:04.854Z,2.13
2018-12-18T13:31:15.740Z,2.27
2018-12-18T13:33:26.593Z,3.07
2018-12-18T13:35:37.480Z,2.30
2018-12-18T13:37:48.384Z,2.50
2018-12-18T13:39:59.236Z,2.53
2018-12-18T13:42:10.121Z,2.70
2018-12-18T13:44:21.006Z,2.47
2018-12-18T13:46:31.928Z,2.30
2018-12-18T13:48:42.875Z,2.27
2018-12-18T13:50:53.777Z,2.20
2018-12-18T13:53:04.654Z,2.50
2018-12-18T13:55:15.488Z,2.13
2018-12-18T13:57:26.356Z,2.10
2018-12-18T13:59:37.177Z,2.23
2018-12-18T14:01:48.069Z,2.40
2018-12-18T14:03:58.953Z,2.53
2018-12-18T14:06:09.804Z,2.47
2018-12-18T14:08:20.705Z,2.43
2018-12-18T14:10:31.608Z,2.40
2018-12-18T14:12:44.505Z,2.30
2018-12-18T14:14:55.348Z,2.33
2018-12-18T14:17:06.186Z,2.40
2018-12-18T14:19:17.120Z,2.43
2018-12-18T14:21:28.091Z,2.13
2018-12-18T14:23:38.986Z,2.07
2018-12-18T14:25:49.844Z,2.10
2018-12-18T14:28:00.732Z,2.50
2018-12-18T14:30:11.588Z,1.90
2018-12-18T14:32:22.484Z,2.47
2018-12-18T14:34:33.382Z,2.10
2018-12-18T14:36:44.230Z,2.10
2018-12-18T14:38:55.097Z,1.97
2018-12-18T14:41:05.940Z,1.93
2018-12-18T14:43:16.806Z,2.50
2018-12-18T14:45:27.683Z,2.23
2018-12-18T14:47:38.545Z,2.30
2018-12-18T14:49:49.416Z,2.03
2018-12-18T14:52:00.297Z,2.03
2018-12-18T14:54:11.622Z,2.50
2018-12-18T14:56:22.453Z,2.30
2018-12-18T14:58:33.349Z,2.10
2018-12-18T15:00:44.209Z,2.30
2018-12-18T15:02:55.052Z,2.37
2018-12-18T15:05:05.978Z,2.47
2018-12-18T15:07:16.836Z,2.30
2018-12-18T15:09:27.698Z,2.10
2018-12-18T15:11:38.573Z,1.90
2018-12-18T15:13:49.452Z,2.23
2018-12-18T15:16:00.341Z,1.87
2018-12-18T15:18:11.176Z,2.20
2018-12-18T15:20:22.058Z,2.43
2018-12-18T15:22:33.021Z,2.47
2018-12-18T15:24:43.933Z,2.17
2018-12-18T15:26:54.901Z,2.70
2018-12-18T15:29:05.772Z,2.60
2018-12-18T15:31:16.660Z,2.70
2018-12-18T15:33:27.488Z,2.40
2018-12-18T15:35:38.796Z,2.53
2018-12-18T15:37:49.808Z,2.80
2018-12-18T15:40:00.642Z,2.90
2018-12-18T15:42:11.519Z,2.73
2018-12-18T15:44:22.396Z,2.63
2018-12-18T15:46:33.394Z,3.03
2018-12-18T15:48:44.295Z,2.47
2018-12-18T15:50:55.141Z,2.70
2018-12-18T15:53:06.028Z,2.50
2018-12-18T15:55:16.885Z,2.50
2018-12-18T15:57:28.774Z,2.43
2018-12-18T15:59:39.693Z,2.77
2018-12-18T16:01:50.574Z,2.90
2018-12-18T16:04:01.416Z,2.57
2018-12-18T16:06:12.285Z,2.63
2018-12-18T16:08:23.130Z,2.53
2018-12-18T16:10:33.973Z,2.87
2018-12-18T16:12:44.865Z,2.90
2018-12-18T16:14:55.725Z,2.70
2018-12-18T16:17:06.607Z,3.20
2018-12-18T16:19:17.886Z,3.10
2018-12-18T16:21:28.766Z,3.17
2018-12-18T16:23:39.624Z,2.83
2018-12-18T16:25:50.506Z,3.20
2018-12-18T16:28:01.376Z,3.13
2018-12-18T16:30:12.329Z,3.40
2018-12-18T16:32:23.181Z,3.00
2018-12-18T16:34:34.094Z,3.20
2018-12-18T16:36:45.009Z,3.40
2018-12-18T16:38:55.860Z,3.70
2018-12-18T16:41:06.746Z,2.97
2018-12-18T16:43:17.629Z,3.47
2018-12-18T16:45:28.500Z,3.47
2018-12-18T16:47:39.511Z,3.57
2018-12-18T16:49:50.409Z,3.77
2018-12-18T16:52:01.425Z,3.57
2018-12-18T16:54:12.581Z,3.67
2018-12-18T16:56:23.412Z,3.50
2018-12-18T16:58:34.295Z,3.77
2018-12-18T17:00:45.148Z,3.63
2018-12-18T17:02:56.037Z,3.90
2018-12-18T17:05:07.011Z,3.60
2018-12-18T17:07:17.889Z,3.60
2018-12-18T17:09:28.773Z,3.97
2018-12-18T17:11:39.666Z,3.57
2018-12-18T17:13:50.573Z,3.93
2018-12-18T17:16:01.457Z,3.83
2018-12-18T17:18:12.326Z,3.70
2018-12-18T17:20:23.224Z,3.90
2018-12-18T17:22:34.077Z,3.97
2018-12-18T17:24:45.886Z,4.07
2018-12-18T17:26:56.757Z,3.97
2018-12-18T17:29:07.637Z,4.13
2018-12-18T17:31:18.520Z,4.17
2018-12-18T17:33:29.413Z,4.37
2018-12-18T17:35:41.450Z,3.73
2018-12-18T17:37:52.292Z,4.27
2018-12-18T17:40:04.396Z,4.63
2018-12-18T17:42:15.277Z,4.70
2018-12-18T17:44:26.181Z,4.20
2018-12-18T17:46:37.062Z,4.43
2018-12-18T17:48:47.944Z,5.07
2018-12-18T17:50:58.796Z,4.47
2018-12-18T17:53:09.642Z,4.50
2018-12-18T17:55:20.533Z,5.30
2018-12-18T17:57:31.481Z,5.23
2018-12-18T17:59:42.349Z,6.27
2018-12-18T18:01:53.278Z,6.67
2018-12-18T18:04:04.179Z,6.07
2018-12-18T18:06:15.045Z,6.47
2018-12-18T18:08:25.968Z,5.13
2018-12-18T18:10:36.876Z,5.80
2018-12-18T18:12:47.786Z,5.53
2018-12-18T18:14:58.648Z,6.13
2018-12-18T18:17:09.552Z,6.03
2018-12-18T18:19:20.470Z,6.27
2018-12-18T18:21:31.393Z,4.80
2018-12-18T18:23:42.254Z,5.77
2018-12-18T18:25:53.320Z,5.83
2018-12-18T18:28:04.264Z,6.43
2018-12-18T18:30:15.141Z,5.70
2018-12-18T18:32:26.027Z,5.27
2018-12-18T18:34:36.894Z,6.87
2018-12-18T18:36:47.929Z,5.73
2018-12-18T18:38:58.813Z,5.87
2018-12-18T18:41:09.700Z,6.07
2018-12-18T18:43:20.727Z,5.63
2018-12-18T18:45:31.691Z,6.20
2018-12-18T18:47:42.558Z,6.70
2018-12-18T18:49:53.469Z,6.33
2018-12-18T18:52:04.324Z,6.50
2018-12-18T18:54:15.346Z,6.43
2018-12-18T18:56:26.546Z,6.97
2018-12-18T18:58:37.457Z,6.50
2018-12-18T19:00:48.356Z,6.20
2018-12-18T19:02:59.244Z,6.40
2018-12-18T19:05:10.209Z,6.20
2018-12-18T19:07:21.074Z,7.00
2018-12-18T19:09:31.953Z,7.40
2018-12-18T19:11:42.832Z,7.80
2018-12-18T19:13:53.731Z,6.97
2018-12-18T19:16:04.565Z,6.67
2018-12-18T19:18:15.409Z,6.50
2018-12-18T19:20:26.463Z,6.67
2018-12-18T19:22:37.325Z,7.10
2018-12-18T19:24:48.512Z,7.27
2018-12-18T19:26:59.375Z,7.10
2018-12-18T19:29:10.254Z,7.43
2018-12-18T19:31:21.129Z,7.80
2018-12-18T19:33:36.808Z,8.00
2018-12-18T19:35:44.909Z,8.40
2018-12-18T19:37:55.781Z,7.20
2018-12-18T19:40:06.983Z,8.90
2018-12-18T19:42:18.094Z,8.07
2018-12-18T19:44:29.008Z,9.13
2018-12-18T19:46:40.890Z,9.57
2018-12-18T19:48:51.794Z,9.60
2018-12-18T19:51:02.837Z,9.63
2018-12-18T19:53:13.786Z,10.10
2018-12-18T19:55:24.661Z,10.03
2018-12-18T19:57:35.575Z,9.50
2018-12-18T19:59:46.536Z,9.47
2018-12-18T20:01:58.292Z,9.23
2018-12-18T20:04:09.317Z,9.17
2018-12-18T20:06:20.201Z,9.10
2018-12-18T20:08:31.129Z,10.70
2018-12-18T20:10:42.097Z,10.00
2018-12-18T20:12:53.090Z,10.33
2018-12-18T20:15:04.565Z,10.60
2018-12-18T20:17:15.621Z,10.63
2018-12-18T20:19:26.615Z,11.20
2018-12-18T20:21:37.587Z,10.80
2018-12-18T20:23:48.601Z,11.20
2018-12-18T20:25:59.768Z,11.33
2018-12-18T20:28:10.648Z,10.70
2018-12-18T20:30:21.527Z,11.27
2018-12-18T20:32:32.390Z,11.60
2018-12-18T20:34:43.306Z,11.83
2018-12-18T20:36:54.181Z,12.00
2018-12-18T20:39:06.421Z,11.37
2018-12-18T20:41:17.354Z,11.47
2018-12-18T20:43:28.310Z,11.53
2018-12-18T20:45:39.221Z,11.93
2018-12-18T20:47:50.103Z,13.17
2018-12-18T20:50:01.059Z,12.10
2018-12-18T20:52:11.911Z,11.80
2018-12-18T20:54:22.813Z,11.83
2018-12-18T20:56:33.695Z,11.67
2018-12-18T20:58:44.697Z,12.30
2018-12-18T21:00:55.598Z,11.77
2018-12-18T21:03:07.314Z,11.93
2018-12-18T21:05:18.342Z,12.00
2018-12-18T21:07:29.219Z,11.50
2018-12-18T21:09:40.088Z,13.43
2018-12-18T21:11:51.083Z,12.17
2018-12-18T21:14:02.142Z,13.07
2018-12-18T21:16:13.005Z,11.73
2018-12-18T21:18:23.979Z,13.17
2018-12-18T21:20:35.003Z,11.57
2018-12-18T21:22:45.850Z,13.17
2018-12-18T21:24:56.771Z,12.33
2018-12-18T21:27:07.631Z,12.73
2018-12-18T21:29:18.543Z,12.43
2018-12-18T21:31:29.417Z,11.87
2018-12-18T21:33:40.384Z,13.07
2018-12-18T21:35:51.244Z,12.27
2018-12-18T21:38:02.122Z,13.20
2018-12-18T21:40:13.016Z,12.37
2018-12-18T21:42:23.907Z,12.57
2018-12-18T21:44:34.899Z,13.10
2018-12-18T21:46:45.741Z,12.57
2018-12-18T21:48:56.594Z,12.23
2018-12-18T21:51:07.457Z,12.90
2018-12-18T21:53:18.307Z,12.57
2018-12-18T21:55:29.145Z,13.73
2018-12-18T21:57:40.340Z,13.67
2018-12-18T21:59:51.193Z,14.07
2018-12-18T22:02:02.060Z,14.17
2018-12-18T22:04:12.993Z,13.37
2018-12-18T22:06:23.859Z,13.00
2018-12-18T22:08:36.922Z,12.93
2018-12-18T22:10:47.587Z,13.00
2018-12-18T22:12:58.532Z,13.57
2018-12-18T22:15:09.398Z,13.27
2018-12-18T22:17:20.229Z,13.97
2018-12-18T22:19:31.080Z,14.17
2018-12-18T22:21:42.629Z,14.27
2018-12-18T22:23:53.463Z,13.90
2018-12-18T22:26:04.371Z,13.90
2018-12-18T22:28:15.353Z,14.37
2018-12-18T22:30:26.273Z,12.20
2018-12-18T22:32:37.260Z,12.97
2018-12-18T22:34:48.170Z,13.03
2018-12-18T22:36:59.016Z,13.87
2018-12-18T22:39:09.880Z,13.30
2018-12-18T22:41:20.705Z,14.47
2018-12-18T22:43:31.554Z,14.50
2018-12-18T22:45:43.211Z,14.47
2018-12-18T22:47:54.165Z,13.23
2018-12-18T22:50:05.841Z,14.50
2018-12-18T22:52:16.693Z,13.30
2018-12-18T22:54:27.562Z,14.13
2018-12-18T22:56:38.505Z,14.57
2018-12-18T22:58:49.372Z,14.50
2018-12-18T23:01:01.209Z,13.87
2018-12-18T23:03:12.144Z,14.57
2018-12-18T23:05:23.076Z,14.00
2018-12-18T23:07:33.917Z,13.93
2018-12-18T23:09:44.764Z,14.07
2018-12-18T23:11:55.616Z,13.73
2018-12-18T23:14:07.377Z,14.70
2018-12-18T23:16:18.237Z,12.13
2018-12-18T23:18:29.089Z,13.23
2018-12-18T23:20:39.946Z,13.47
2018-12-18T23:22:50.779Z,14.13
2018-12-18T23:25:01.642Z,14.03
2018-12-18T23:27:12.603Z,14.77
2018-12-18T23:29:23.469Z,14.23
2018-12-18T23:31:34.296Z,14.17
2018-12-18T23:33:45.153Z,13.40
2018-12-18T23:35:55.988Z,14.67
2018-12-18T23:38:06.920Z,13.00
2018-12-18T23:40:17.769Z,13.80
2018-12-18T23:42:28.595Z,13.70
2018-12-18T23:44:39.456Z,14.03
2018-12-18T23:46:50.337Z,14.30
2018-12-18T23:49:01.196Z,14.57
2018-12-18T23:51:12.164Z,13.40
2018-12-18T23:53:23.021Z,13.43
2018-12-18T23:55:33.867Z,15.80
2018-12-18T23:57:44.724Z,14.80
2018-12-18T23:59:55.569Z,15.43
